sensor_id;sensor_type;location;lat;lon;timestamp;temperature;humidity
11615;DHT22;5863;52.832;4.758;2023-05-09T00:00:30;13.70;99.90
11615;DHT22;5863;52.832;4.758;2023-05-09T00:02:57;13.70;99.90
11615;DHT22;5863;52.832;4.758;2023-05-09T00:05:24;13.60;99.90
11615;DHT22;5863;52.832;4.758;2023-05-09T00:07:50;13.50;99.90
11615;DHT22;5863;52.832;4.758;2023-05-09T00:10:18;13.60;99.90
11615;DHT22;5863;52.832;4.758;2023-05-09T00:12:45;13.60;99.90
11615;DHT22;5863;52.832;4.758;2023-05-09T00:15:14;13.60;99.90
11615;DHT22;5863;52.832;4.758;2023-05-09T00:17:40;13.60;99.90
11615;DHT22;5863;52.832;4.758;2023-05-09T00:20:09;13.60;99.90
11615;DHT22;5863;52.832;4.758;2023-05-09T00:22:36;13.60;99.90
11615;DHT22;5863;52.832;4.758;2023-05-09T00:25:04;13.60;99.90
11615;DHT22;5863;52.832;4.758;2023-05-09T00:27:32;13.60;99.90
11615;DHT22;5863;52.832;4.758;2023-05-09T00:29:59;13.50;99.90
11615;DHT22;5863;52.832;4.758;2023-05-09T00:32:25;13.50;99.90
11615;DHT22;5863;52.832;4.758;2023-05-09T00:34:53;13.50;99.90
11615;DHT22;5863;52.832;4.758;2023-05-09T00:37:20;13.50;99.90
11615;DHT22;5863;52.832;4.758;2023-05-09T00:39:47;13.50;99.90
11615;DHT22;5863;52.832;4.758;2023-05-09T00:42:14;13.50;99.90
11615;DHT22;5863;52.832;4.758;2023-05-09T00:44:42;13.50;99.90
11615;DHT22;5863;52.832;4.758;2023-05-09T00:47:08;13.60;99.90
11615;DHT22;5863;52.832;4.758;2023-05-09T00:49:35;13.60;99.90
11615;DHT22;5863;52.832;4.758;2023-05-09T00:52:02;13.60;99.90
11615;DHT22;5863;52.832;4.758;2023-05-09T00:54:30;13.60;99.90
11615;DHT22;5863;52.832;4.758;2023-05-09T00:56:57;13.70;99.90
11615;DHT22;5863;52.832;4.758;2023-05-09T00:59:23;13.70;99.90
11615;DHT22;5863;52.832;4.758;2023-05-09T01:01:51;13.70;99.90
11615;DHT22;5863;52.832;4.758;2023-05-09T01:04:18;13.80;99.90
11615;DHT22;5863;52.832;4.758;2023-05-09T01:06:53;13.80;99.90
11615;DHT22;5863;52.832;4.758;2023-05-09T01:09:25;13.80;99.90
11615;DHT22;5863;52.832;4.758;2023-05-09T01:12:12;13.80;99.90
11615;DHT22;5863;52.832;4.758;2023-05-09T01:14:55;13.80;99.90
11615;DHT22;5863;52.832;4.758;2023-05-09T01:17:33;13.90;99.90
11615;DHT22;5863;52.832;4.758;2023-05-09T01:20:06;14.00;99.90
11615;DHT22;5863;52.832;4.758;2023-05-09T01:22:36;13.90;99.90
11615;DHT22;5863;52.832;4.758;2023-05-09T01:28:34;14.00;99.90
11615;DHT22;5863;52.832;4.758;2023-05-09T01:31:05;14.00;99.90
11615;DHT22;5863;52.832;4.758;2023-05-09T01:33:37;14.00;99.90
11615;DHT22;5863;52.832;4.758;2023-05-09T01:36:08;13.90;99.90
11615;DHT22;5863;52.832;4.758;2023-05-09T01:38:38;13.90;99.90
11615;DHT22;5863;52.832;4.758;2023-05-09T01:41:05;13.80;99.90
11615;DHT22;5863;52.832;4.758;2023-05-09T01:43:35;13.80;99.90
11615;DHT22;5863;52.832;4.758;2023-05-09T01:46:04;13.80;99.90
11615;DHT22;5863;52.832;4.758;2023-05-09T01:48:30;13.90;99.90
11615;DHT22;5863;52.832;4.758;2023-05-09T01:50:59;13.80;99.90
11615;DHT22;5863;52.832;4.758;2023-05-09T01:53:28;13.90;99.90
11615;DHT22;5863;52.832;4.758;2023-05-09T01:55:55;13.90;99.90
11615;DHT22;5863;52.832;4.758;2023-05-09T01:58:24;13.90;99.90
11615;DHT22;5863;52.832;4.758;2023-05-09T02:00:52;13.90;99.90
11615;DHT22;5863;52.832;4.758;2023-05-09T02:03:27;13.90;99.90
11615;DHT22;5863;52.832;4.758;2023-05-09T02:05:54;13.90;99.90
11615;DHT22;5863;52.832;4.758;2023-05-09T02:08:22;13.90;99.90
11615;DHT22;5863;52.832;4.758;2023-05-09T02:10:49;13.90;99.90
11615;DHT22;5863;52.832;4.758;2023-05-09T02:13:16;13.90;99.90
11615;DHT22;5863;52.832;4.758;2023-05-09T02:15:43;14.00;99.90
11615;DHT22;5863;52.832;4.758;2023-05-09T02:18:10;13.90;99.90
11615;DHT22;5863;52.832;4.758;2023-05-09T02:20:38;14.00;99.90
11615;DHT22;5863;52.832;4.758;2023-05-09T02:23:05;14.00;99.90
11615;DHT22;5863;52.832;4.758;2023-05-09T02:25:32;14.00;99.90
11615;DHT22;5863;52.832;4.758;2023-05-09T02:28:00;14.00;99.90
11615;DHT22;5863;52.832;4.758;2023-05-09T02:30:35;14.00;99.90
11615;DHT22;5863;52.832;4.758;2023-05-09T02:33:06;14.00;99.90
11615;DHT22;5863;52.832;4.758;2023-05-09T02:35:34;14.00;99.90
11615;DHT22;5863;52.832;4.758;2023-05-09T02:38:03;14.00;99.90
11615;DHT22;5863;52.832;4.758;2023-05-09T02:40:29;14.00;99.90
11615;DHT22;5863;52.832;4.758;2023-05-09T02:42:56;14.00;99.90
11615;DHT22;5863;52.832;4.758;2023-05-09T02:45:23;14.00;99.90
11615;DHT22;5863;52.832;4.758;2023-05-09T02:47:50;14.10;99.90
11615;DHT22;5863;52.832;4.758;2023-05-09T02:50:17;14.10;99.90
11615;DHT22;5863;52.832;4.758;2023-05-09T02:52:43;14.10;99.90
11615;DHT22;5863;52.832;4.758;2023-05-09T02:55:12;14.20;99.90
11615;DHT22;5863;52.832;4.758;2023-05-09T02:57:38;14.20;99.90
11615;DHT22;5863;52.832;4.758;2023-05-09T03:00:06;14.20;99.90
11615;DHT22;5863;52.832;4.758;2023-05-09T03:02:34;14.10;99.90
11615;DHT22;5863;52.832;4.758;2023-05-09T03:05:01;14.10;99.90
11615;DHT22;5863;52.832;4.758;2023-05-09T03:07:28;14.10;99.90
11615;DHT22;5863;52.832;4.758;2023-05-09T03:09:55;14.10;99.90
11615;DHT22;5863;52.832;4.758;2023-05-09T03:12:23;14.10;99.90
11615;DHT22;5863;52.832;4.758;2023-05-09T03:14:50;14.20;99.90
11615;DHT22;5863;52.832;4.758;2023-05-09T03:17:16;14.30;99.90
11615;DHT22;5863;52.832;4.758;2023-05-09T03:19:45;14.20;99.90
11615;DHT22;5863;52.832;4.758;2023-05-09T03:22:12;14.20;99.90
11615;DHT22;5863;52.832;4.758;2023-05-09T03:24:39;14.20;99.90
11615;DHT22;5863;52.832;4.758;2023-05-09T03:27:06;14.20;99.90
11615;DHT22;5863;52.832;4.758;2023-05-09T03:29:34;14.20;99.90
11615;DHT22;5863;52.832;4.758;2023-05-09T03:32:00;14.20;99.90
11615;DHT22;5863;52.832;4.758;2023-05-09T03:34:27;14.20;99.90
11615;DHT22;5863;52.832;4.758;2023-05-09T03:36:54;14.20;99.90
11615;DHT22;5863;52.832;4.758;2023-05-09T03:39:20;14.20;99.90
11615;DHT22;5863;52.832;4.758;2023-05-09T03:41:47;14.10;99.90
11615;DHT22;5863;52.832;4.758;2023-05-09T03:44:14;14.20;99.90
11615;DHT22;5863;52.832;4.758;2023-05-09T03:46:42;14.10;99.90
11615;DHT22;5863;52.832;4.758;2023-05-09T03:49:08;14.20;99.90
11615;DHT22;5863;52.832;4.758;2023-05-09T03:51:35;14.10;99.90
11615;DHT22;5863;52.832;4.758;2023-05-09T03:54:02;14.20;99.90
11615;DHT22;5863;52.832;4.758;2023-05-09T03:56:28;14.20;99.90
11615;DHT22;5863;52.832;4.758;2023-05-09T03:58:55;14.20;99.90
11615;DHT22;5863;52.832;4.758;2023-05-09T04:01:22;14.20;99.90
11615;DHT22;5863;52.832;4.758;2023-05-09T04:03:50;14.20;99.90
11615;DHT22;5863;52.832;4.758;2023-05-09T04:06:16;14.20;99.90
11615;DHT22;5863;52.832;4.758;2023-05-09T04:08:43;14.20;99.90
11615;DHT22;5863;52.832;4.758;2023-05-09T04:11:10;14.30;99.90
11615;DHT22;5863;52.832;4.758;2023-05-09T04:13:38;14.30;99.90
11615;DHT22;5863;52.832;4.758;2023-05-09T04:16:05;14.30;99.90
11615;DHT22;5863;52.832;4.758;2023-05-09T04:18:31;14.30;99.90
11615;DHT22;5863;52.832;4.758;2023-05-09T04:20:59;14.30;99.90
11615;DHT22;5863;52.832;4.758;2023-05-09T04:23:26;14.30;99.90
11615;DHT22;5863;52.832;4.758;2023-05-09T04:25:53;14.40;99.90
11615;DHT22;5863;52.832;4.758;2023-05-09T04:28:19;14.30;99.90
11615;DHT22;5863;52.832;4.758;2023-05-09T04:30:46;14.30;99.90
11615;DHT22;5863;52.832;4.758;2023-05-09T04:33:13;14.40;99.90
11615;DHT22;5863;52.832;4.758;2023-05-09T04:35:39;14.40;99.90
11615;DHT22;5863;52.832;4.758;2023-05-09T04:38:07;14.40;99.90
11615;DHT22;5863;52.832;4.758;2023-05-09T04:40:34;14.30;99.90
11615;DHT22;5863;52.832;4.758;2023-05-09T04:43:01;14.40;99.90
11615;DHT22;5863;52.832;4.758;2023-05-09T04:45:28;14.40;99.90
11615;DHT22;5863;52.832;4.758;2023-05-09T04:47:55;14.40;99.90
11615;DHT22;5863;52.832;4.758;2023-05-09T04:50:21;14.40;99.90
11615;DHT22;5863;52.832;4.758;2023-05-09T04:52:48;14.40;99.90
11615;DHT22;5863;52.832;4.758;2023-05-09T04:55:16;14.40;99.90
11615;DHT22;5863;52.832;4.758;2023-05-09T04:57:43;14.40;99.90
11615;DHT22;5863;52.832;4.758;2023-05-09T05:00:11;14.40;99.90
11615;DHT22;5863;52.832;4.758;2023-05-09T05:02:38;14.40;99.90
11615;DHT22;5863;52.832;4.758;2023-05-09T05:05:05;14.40;99.90
11615;DHT22;5863;52.832;4.758;2023-05-09T05:07:32;14.40;99.90
11615;DHT22;5863;52.832;4.758;2023-05-09T05:09:59;14.50;99.90
11615;DHT22;5863;52.832;4.758;2023-05-09T05:12:27;14.50;99.90
11615;DHT22;5863;52.832;4.758;2023-05-09T05:14:53;14.50;99.90
11615;DHT22;5863;52.832;4.758;2023-05-09T05:17:20;14.50;99.90
11615;DHT22;5863;52.832;4.758;2023-05-09T05:19:46;14.50;99.90
11615;DHT22;5863;52.832;4.758;2023-05-09T05:22:13;14.60;99.90
11615;DHT22;5863;52.832;4.758;2023-05-09T05:24:40;14.60;99.90
11615;DHT22;5863;52.832;4.758;2023-05-09T05:27:06;14.70;99.90
11615;DHT22;5863;52.832;4.758;2023-05-09T05:29:34;14.70;99.90
11615;DHT22;5863;52.832;4.758;2023-05-09T05:32:01;14.70;99.90
11615;DHT22;5863;52.832;4.758;2023-05-09T05:34:28;14.70;99.90
11615;DHT22;5863;52.832;4.758;2023-05-09T05:36:54;14.70;99.90
11615;DHT22;5863;52.832;4.758;2023-05-09T05:39:21;14.70;99.90
11615;DHT22;5863;52.832;4.758;2023-05-09T05:41:48;14.70;99.90
11615;DHT22;5863;52.832;4.758;2023-05-09T05:44:16;14.80;99.90
11615;DHT22;5863;52.832;4.758;2023-05-09T05:46:44;14.80;99.90
11615;DHT22;5863;52.832;4.758;2023-05-09T05:49:11;14.80;99.90
11615;DHT22;5863;52.832;4.758;2023-05-09T05:51:38;14.80;99.90
11615;DHT22;5863;52.832;4.758;2023-05-09T05:54:05;14.80;99.90
11615;DHT22;5863;52.832;4.758;2023-05-09T05:56:31;14.80;99.90
11615;DHT22;5863;52.832;4.758;2023-05-09T05:58:58;14.80;99.90
11615;DHT22;5863;52.832;4.758;2023-05-09T06:01:25;14.90;99.90
11615;DHT22;5863;52.832;4.758;2023-05-09T06:03:53;14.90;99.90
11615;DHT22;5863;52.832;4.758;2023-05-09T06:06:20;14.90;99.90
11615;DHT22;5863;52.832;4.758;2023-05-09T06:08:48;14.90;99.90
11615;DHT22;5863;52.832;4.758;2023-05-09T06:11:15;15.00;99.90
11615;DHT22;5863;52.832;4.758;2023-05-09T06:13:42;15.00;99.90
11615;DHT22;5863;52.832;4.758;2023-05-09T06:16:09;14.90;99.90
11615;DHT22;5863;52.832;4.758;2023-05-09T06:18:36;14.90;99.90
11615;DHT22;5863;52.832;4.758;2023-05-09T06:21:06;14.90;99.90
11615;DHT22;5863;52.832;4.758;2023-05-09T06:23:33;14.90;99.90
11615;DHT22;5863;52.832;4.758;2023-05-09T06:26:01;14.90;99.90
11615;DHT22;5863;52.832;4.758;2023-05-09T06:28:29;14.90;99.90
11615;DHT22;5863;52.832;4.758;2023-05-09T06:30:55;14.90;99.90
11615;DHT22;5863;52.832;4.758;2023-05-09T06:33:22;14.80;99.90
11615;DHT22;5863;52.832;4.758;2023-05-09T06:35:49;14.90;99.90
11615;DHT22;5863;52.832;4.758;2023-05-09T06:38:17;14.90;99.90
11615;DHT22;5863;52.832;4.758;2023-05-09T06:40:45;14.90;99.90
11615;DHT22;5863;52.832;4.758;2023-05-09T06:43:11;14.90;99.90
11615;DHT22;5863;52.832;4.758;2023-05-09T06:45:38;14.90;99.90
11615;DHT22;5863;52.832;4.758;2023-05-09T06:48:05;14.80;99.90
11615;DHT22;5863;52.832;4.758;2023-05-09T06:50:32;14.80;99.90
11615;DHT22;5863;52.832;4.758;2023-05-09T06:52:58;14.80;99.90
11615;DHT22;5863;52.832;4.758;2023-05-09T06:55:27;14.80;99.90
11615;DHT22;5863;52.832;4.758;2023-05-09T06:57:54;14.80;99.90
11615;DHT22;5863;52.832;4.758;2023-05-09T07:00:21;14.80;99.90
11615;DHT22;5863;52.832;4.758;2023-05-09T07:02:48;14.80;99.90
11615;DHT22;5863;52.832;4.758;2023-05-09T07:05:15;14.90;99.90
11615;DHT22;5863;52.832;4.758;2023-05-09T07:07:41;14.90;99.90
11615;DHT22;5863;52.832;4.758;2023-05-09T07:10:08;14.90;99.90
11615;DHT22;5863;52.832;4.758;2023-05-09T07:12:36;14.90;99.90
11615;DHT22;5863;52.832;4.758;2023-05-09T07:15:04;14.80;99.90
11615;DHT22;5863;52.832;4.758;2023-05-09T07:17:31;14.80;99.90
11615;DHT22;5863;52.832;4.758;2023-05-09T07:19:57;14.90;99.90
11615;DHT22;5863;52.832;4.758;2023-05-09T07:22:24;14.90;99.90
11615;DHT22;5863;52.832;4.758;2023-05-09T07:24:51;14.90;99.90
11615;DHT22;5863;52.832;4.758;2023-05-09T07:27:18;15.00;99.90
11615;DHT22;5863;52.832;4.758;2023-05-09T07:29:46;15.00;99.90
11615;DHT22;5863;52.832;4.758;2023-05-09T07:32:16;15.00;99.90
11615;DHT22;5863;52.832;4.758;2023-05-09T07:34:43;15.00;99.90
11615;DHT22;5863;52.832;4.758;2023-05-09T07:37:10;15.00;99.90
11615;DHT22;5863;52.832;4.758;2023-05-09T07:39:36;15.00;99.90
11615;DHT22;5863;52.832;4.758;2023-05-09T07:42:03;14.90;99.90
11615;DHT22;5863;52.832;4.758;2023-05-09T07:44:30;14.90;99.90
11615;DHT22;5863;52.832;4.758;2023-05-09T07:46:58;15.00;99.90
11615;DHT22;5863;52.832;4.758;2023-05-09T07:49:25;15.00;99.90
11615;DHT22;5863;52.832;4.758;2023-05-09T07:51:52;15.00;99.90
11615;DHT22;5863;52.832;4.758;2023-05-09T07:54:18;14.90;99.90
11615;DHT22;5863;52.832;4.758;2023-05-09T07:56:45;15.00;99.90
11615;DHT22;5863;52.832;4.758;2023-05-09T07:59:12;14.90;99.90
11615;DHT22;5863;52.832;4.758;2023-05-09T08:01:38;15.00;99.90
11615;DHT22;5863;52.832;4.758;2023-05-09T08:04:06;15.00;99.90
11615;DHT22;5863;52.832;4.758;2023-05-09T08:06:34;15.00;99.90
11615;DHT22;5863;52.832;4.758;2023-05-09T08:09:01;15.10;99.90
11615;DHT22;5863;52.832;4.758;2023-05-09T08:11:29;15.10;99.90
11615;DHT22;5863;52.832;4.758;2023-05-09T08:13:57;15.20;99.90
11615;DHT22;5863;52.832;4.758;2023-05-09T08:16:24;15.20;99.90
11615;DHT22;5863;52.832;4.758;2023-05-09T08:18:51;15.20;99.90
11615;DHT22;5863;52.832;4.758;2023-05-09T08:21:20;15.20;99.90
11615;DHT22;5863;52.832;4.758;2023-05-09T08:23:46;15.20;99.90
11615;DHT22;5863;52.832;4.758;2023-05-09T08:26:13;15.20;99.90
11615;DHT22;5863;52.832;4.758;2023-05-09T08:28:40;15.20;99.90
11615;DHT22;5863;52.832;4.758;2023-05-09T08:31:06;15.20;99.90
11615;DHT22;5863;52.832;4.758;2023-05-09T08:33:33;15.30;99.90
11615;DHT22;5863;52.832;4.758;2023-05-09T08:36:00;15.20;99.90
11615;DHT22;5863;52.832;4.758;2023-05-09T08:38:28;15.20;99.90
11615;DHT22;5863;52.832;4.758;2023-05-09T08:40:59;15.20;99.90
11615;DHT22;5863;52.832;4.758;2023-05-09T08:43:27;15.20;99.90
11615;DHT22;5863;52.832;4.758;2023-05-09T08:45:57;15.20;99.90
11615;DHT22;5863;52.832;4.758;2023-05-09T08:48:25;15.20;99.90
11615;DHT22;5863;52.832;4.758;2023-05-09T08:50:52;15.20;99.90
11615;DHT22;5863;52.832;4.758;2023-05-09T08:53:20;15.10;99.90
11615;DHT22;5863;52.832;4.758;2023-05-09T08:55:49;15.10;99.90
11615;DHT22;5863;52.832;4.758;2023-05-09T08:58:18;15.10;99.90
11615;DHT22;5863;52.832;4.758;2023-05-09T09:00:46;15.10;99.90
11615;DHT22;5863;52.832;4.758;2023-05-09T09:03:14;15.10;99.90
11615;DHT22;5863;52.832;4.758;2023-05-09T09:05:42;15.10;99.90
11615;DHT22;5863;52.832;4.758;2023-05-09T09:08:10;15.10;99.90
11615;DHT22;5863;52.832;4.758;2023-05-09T09:10:39;15.20;99.90
11615;DHT22;5863;52.832;4.758;2023-05-09T09:13:09;15.20;99.90
11615;DHT22;5863;52.832;4.758;2023-05-09T09:15:37;15.20;99.90
11615;DHT22;5863;52.832;4.758;2023-05-09T09:18:07;15.20;99.90
11615;DHT22;5863;52.832;4.758;2023-05-09T09:20:36;15.30;99.90
11615;DHT22;5863;52.832;4.758;2023-05-09T09:23:07;15.30;99.90
11615;DHT22;5863;52.832;4.758;2023-05-09T09:25:35;15.30;99.90
11615;DHT22;5863;52.832;4.758;2023-05-09T09:28:02;15.30;99.90
11615;DHT22;5863;52.832;4.758;2023-05-09T09:30:30;15.30;99.90
11615;DHT22;5863;52.832;4.758;2023-05-09T09:32:57;15.30;99.90
11615;DHT22;5863;52.832;4.758;2023-05-09T09:35:25;15.30;99.90
11615;DHT22;5863;52.832;4.758;2023-05-09T09:37:56;15.30;99.90
11615;DHT22;5863;52.832;4.758;2023-05-09T09:40:23;15.30;99.90
11615;DHT22;5863;52.832;4.758;2023-05-09T09:42:51;15.30;99.90
11615;DHT22;5863;52.832;4.758;2023-05-09T09:45:19;15.30;99.90
11615;DHT22;5863;52.832;4.758;2023-05-09T09:47:48;15.30;99.90
11615;DHT22;5863;52.832;4.758;2023-05-09T09:50:16;15.20;99.90
11615;DHT22;5863;52.832;4.758;2023-05-09T09:52:49;15.20;99.90
11615;DHT22;5863;52.832;4.758;2023-05-09T09:55:16;15.30;99.90
11615;DHT22;5863;52.832;4.758;2023-05-09T09:57:43;15.20;99.90
11615;DHT22;5863;52.832;4.758;2023-05-09T10:00:11;15.20;99.90
11615;DHT22;5863;52.832;4.758;2023-05-09T10:02:50;15.20;99.90
11615;DHT22;5863;52.832;4.758;2023-05-09T10:05:18;15.20;99.90
11615;DHT22;5863;52.832;4.758;2023-05-09T10:07:49;15.20;99.90
11615;DHT22;5863;52.832;4.758;2023-05-09T10:10:17;15.20;99.90
11615;DHT22;5863;52.832;4.758;2023-05-09T10:12:44;15.30;99.90
11615;DHT22;5863;52.832;4.758;2023-05-09T10:15:11;15.30;99.90
11615;DHT22;5863;52.832;4.758;2023-05-09T10:17:40;15.40;99.90
11615;DHT22;5863;52.832;4.758;2023-05-09T10:20:09;15.30;99.90
11615;DHT22;5863;52.832;4.758;2023-05-09T10:22:38;15.40;99.90
11615;DHT22;5863;52.832;4.758;2023-05-09T10:25:08;15.50;99.90
11615;DHT22;5863;52.832;4.758;2023-05-09T10:27:39;15.50;99.90
11615;DHT22;5863;52.832;4.758;2023-05-09T10:30:12;15.50;99.90
11615;DHT22;5863;52.832;4.758;2023-05-09T10:32:45;15.50;99.90
11615;DHT22;5863;52.832;4.758;2023-05-09T10:35:16;15.50;99.90
11615;DHT22;5863;52.832;4.758;2023-05-09T10:37:43;15.50;99.90
11615;DHT22;5863;52.832;4.758;2023-05-09T10:40:11;15.50;99.90
11615;DHT22;5863;52.832;4.758;2023-05-09T10:42:40;15.60;99.90
11615;DHT22;5863;52.832;4.758;2023-05-09T10:45:08;15.50;99.90
11615;DHT22;5863;52.832;4.758;2023-05-09T10:47:36;15.50;99.90
11615;DHT22;5863;52.832;4.758;2023-05-09T10:50:04;15.60;99.90
11615;DHT22;5863;52.832;4.758;2023-05-09T10:52:33;15.60;99.90
11615;DHT22;5863;52.832;4.758;2023-05-09T10:55:00;15.60;99.90
11615;DHT22;5863;52.832;4.758;2023-05-09T10:57:29;15.60;99.90
11615;DHT22;5863;52.832;4.758;2023-05-09T10:59:57;15.60;99.90
11615;DHT22;5863;52.832;4.758;2023-05-09T11:02:24;15.50;99.90
11615;DHT22;5863;52.832;4.758;2023-05-09T11:05:17;15.60;99.90
11615;DHT22;5863;52.832;4.758;2023-05-09T11:07:46;15.60;99.90
11615;DHT22;5863;52.832;4.758;2023-05-09T11:10:14;15.60;99.90
11615;DHT22;5863;52.832;4.758;2023-05-09T11:12:55;15.70;99.90
11615;DHT22;5863;52.832;4.758;2023-05-09T11:15:23;15.60;99.90
11615;DHT22;5863;52.832;4.758;2023-05-09T11:18:04;15.70;99.90
11615;DHT22;5863;52.832;4.758;2023-05-09T11:20:33;15.70;99.90
11615;DHT22;5863;52.832;4.758;2023-05-09T11:23:03;15.70;99.90
11615;DHT22;5863;52.832;4.758;2023-05-09T11:25:30;15.70;99.90
11615;DHT22;5863;52.832;4.758;2023-05-09T11:27:59;15.60;99.90
11615;DHT22;5863;52.832;4.758;2023-05-09T11:30:35;15.60;99.90
11615;DHT22;5863;52.832;4.758;2023-05-09T11:33:03;15.70;99.90
11615;DHT22;5863;52.832;4.758;2023-05-09T11:35:32;15.60;99.90
11615;DHT22;5863;52.832;4.758;2023-05-09T11:38:00;15.70;99.90
11615;DHT22;5863;52.832;4.758;2023-05-09T11:40:30;15.70;99.90
11615;DHT22;5863;52.832;4.758;2023-05-09T11:42:58;15.70;99.90
11615;DHT22;5863;52.832;4.758;2023-05-09T11:45:28;15.70;99.90
11615;DHT22;5863;52.832;4.758;2023-05-09T11:47:55;15.70;99.90
11615;DHT22;5863;52.832;4.758;2023-05-09T11:50:22;15.70;99.90
11615;DHT22;5863;52.832;4.758;2023-05-09T11:52:49;15.70;99.90
11615;DHT22;5863;52.832;4.758;2023-05-09T11:55:18;15.70;99.90
11615;DHT22;5863;52.832;4.758;2023-05-09T11:57:49;15.60;99.90
11615;DHT22;5863;52.832;4.758;2023-05-09T12:00:17;15.60;99.90
11615;DHT22;5863;52.832;4.758;2023-05-09T12:02:44;15.70;99.90
11615;DHT22;5863;52.832;4.758;2023-05-09T12:05:12;15.70;99.90
11615;DHT22;5863;52.832;4.758;2023-05-09T12:07:40;15.70;99.90
11615;DHT22;5863;52.832;4.758;2023-05-09T12:10:08;15.70;99.90
11615;DHT22;5863;52.832;4.758;2023-05-09T12:12:37;15.80;99.90
11615;DHT22;5863;52.832;4.758;2023-05-09T12:15:09;15.80;99.90
11615;DHT22;5863;52.832;4.758;2023-05-09T12:17:37;15.80;99.90
11615;DHT22;5863;52.832;4.758;2023-05-09T12:20:05;15.80;99.90
11615;DHT22;5863;52.832;4.758;2023-05-09T12:22:33;15.80;99.90
11615;DHT22;5863;52.832;4.758;2023-05-09T12:25:00;15.80;99.90
11615;DHT22;5863;52.832;4.758;2023-05-09T12:27:30;15.80;99.90
11615;DHT22;5863;52.832;4.758;2023-05-09T12:29:59;15.70;99.90
11615;DHT22;5863;52.832;4.758;2023-05-09T12:32:28;15.80;99.90
11615;DHT22;5863;52.832;4.758;2023-05-09T12:34:57;15.80;99.90
11615;DHT22;5863;52.832;4.758;2023-05-09T12:37:23;15.80;99.90
11615;DHT22;5863;52.832;4.758;2023-05-09T12:40:00;15.80;99.90
11615;DHT22;5863;52.832;4.758;2023-05-09T12:42:27;15.80;99.90
11615;DHT22;5863;52.832;4.758;2023-05-09T12:44:54;15.80;99.90
11615;DHT22;5863;52.832;4.758;2023-05-09T12:47:21;15.70;99.90
11615;DHT22;5863;52.832;4.758;2023-05-09T12:49:49;15.70;99.90
11615;DHT22;5863;52.832;4.758;2023-05-09T12:52:17;15.70;99.90
11615;DHT22;5863;52.832;4.758;2023-05-09T12:54:45;15.70;99.90
11615;DHT22;5863;52.832;4.758;2023-05-09T12:57:20;15.70;99.90
11615;DHT22;5863;52.832;4.758;2023-05-09T12:59:47;15.70;99.90
11615;DHT22;5863;52.832;4.758;2023-05-09T13:02:14;15.70;99.90
11615;DHT22;5863;52.832;4.758;2023-05-09T13:04:40;15.70;99.90
11615;DHT22;5863;52.832;4.758;2023-05-09T13:07:09;15.80;99.90
11615;DHT22;5863;52.832;4.758;2023-05-09T13:09:36;15.90;99.90
11615;DHT22;5863;52.832;4.758;2023-05-09T13:12:19;15.90;99.90
11615;DHT22;5863;52.832;4.758;2023-05-09T13:14:46;15.90;99.90
11615;DHT22;5863;52.832;4.758;2023-05-09T13:17:12;15.90;99.90
11615;DHT22;5863;52.832;4.758;2023-05-09T13:19:39;15.90;99.90
11615;DHT22;5863;52.832;4.758;2023-05-09T13:22:05;15.90;99.90
11615;DHT22;5863;52.832;4.758;2023-05-09T13:24:33;15.80;99.90
11615;DHT22;5863;52.832;4.758;2023-05-09T13:27:01;15.90;99.90
11615;DHT22;5863;52.832;4.758;2023-05-09T13:29:29;15.90;99.90
11615;DHT22;5863;52.832;4.758;2023-05-09T13:31:55;15.90;99.90
11615;DHT22;5863;52.832;4.758;2023-05-09T13:34:23;15.90;99.90
11615;DHT22;5863;52.832;4.758;2023-05-09T13:36:49;15.80;99.90
11615;DHT22;5863;52.832;4.758;2023-05-09T13:39:16;15.80;99.90
11615;DHT22;5863;52.832;4.758;2023-05-09T13:41:44;15.80;99.90
11615;DHT22;5863;52.832;4.758;2023-05-09T13:44:10;15.90;99.90
11615;DHT22;5863;52.832;4.758;2023-05-09T13:46:37;15.80;99.90
11615;DHT22;5863;52.832;4.758;2023-05-09T13:49:06;15.70;99.90
11615;DHT22;5863;52.832;4.758;2023-05-09T13:51:33;15.70;99.90
11615;DHT22;5863;52.832;4.758;2023-05-09T13:54:00;15.70;99.90
11615;DHT22;5863;52.832;4.758;2023-05-09T13:56:26;15.70;99.90
11615;DHT22;5863;52.832;4.758;2023-05-09T13:58:55;15.70;99.90
11615;DHT22;5863;52.832;4.758;2023-05-09T14:01:21;15.70;99.90
11615;DHT22;5863;52.832;4.758;2023-05-09T14:03:48;15.70;99.90
11615;DHT22;5863;52.832;4.758;2023-05-09T14:06:15;15.80;99.90
11615;DHT22;5863;52.832;4.758;2023-05-09T14:08:42;15.80;99.90
11615;DHT22;5863;52.832;4.758;2023-05-09T14:11:09;15.80;99.90
11615;DHT22;5863;52.832;4.758;2023-05-09T14:13:36;15.80;99.90
11615;DHT22;5863;52.832;4.758;2023-05-09T14:16:04;15.80;99.90
11615;DHT22;5863;52.832;4.758;2023-05-09T14:18:31;15.70;99.90
11615;DHT22;5863;52.832;4.758;2023-05-09T14:20:57;15.70;99.90
11615;DHT22;5863;52.832;4.758;2023-05-09T14:23:24;15.60;99.90
11615;DHT22;5863;52.832;4.758;2023-05-09T14:25:51;15.70;99.90
11615;DHT22;5863;52.832;4.758;2023-05-09T14:28:17;15.60;99.90
11615;DHT22;5863;52.832;4.758;2023-05-09T14:30:44;15.70;99.90
11615;DHT22;5863;52.832;4.758;2023-05-09T14:33:12;15.80;99.90
11615;DHT22;5863;52.832;4.758;2023-05-09T14:35:39;15.90;99.90
11615;DHT22;5863;52.832;4.758;2023-05-09T14:38:06;15.90;99.90
11615;DHT22;5863;52.832;4.758;2023-05-09T14:40:32;16.00;99.90
11615;DHT22;5863;52.832;4.758;2023-05-09T14:43:00;16.00;99.90
11615;DHT22;5863;52.832;4.758;2023-05-09T14:45:27;16.00;99.90
11615;DHT22;5863;52.832;4.758;2023-05-09T14:47:53;16.00;99.90
11615;DHT22;5863;52.832;4.758;2023-05-09T14:50:22;16.00;99.90
11615;DHT22;5863;52.832;4.758;2023-05-09T14:52:49;16.00;99.90
11615;DHT22;5863;52.832;4.758;2023-05-09T14:55:16;16.00;99.90
11615;DHT22;5863;52.832;4.758;2023-05-09T14:57:43;16.00;99.90
11615;DHT22;5863;52.832;4.758;2023-05-09T15:00:10;16.00;99.90
11615;DHT22;5863;52.832;4.758;2023-05-09T15:02:38;16.00;99.90
11615;DHT22;5863;52.832;4.758;2023-05-09T15:05:07;16.00;99.90
11615;DHT22;5863;52.832;4.758;2023-05-09T15:07:35;16.10;99.90
11615;DHT22;5863;52.832;4.758;2023-05-09T15:10:02;16.10;99.90
11615;DHT22;5863;52.832;4.758;2023-05-09T15:12:28;16.10;99.90
11615;DHT22;5863;52.832;4.758;2023-05-09T15:14:57;16.10;99.90
11615;DHT22;5863;52.832;4.758;2023-05-09T15:17:34;16.10;99.90
11615;DHT22;5863;52.832;4.758;2023-05-09T15:20:01;16.00;99.90
11615;DHT22;5863;52.832;4.758;2023-05-09T15:22:28;16.00;99.90
11615;DHT22;5863;52.832;4.758;2023-05-09T15:24:59;16.00;99.90
11615;DHT22;5863;52.832;4.758;2023-05-09T15:27:26;16.00;99.90
11615;DHT22;5863;52.832;4.758;2023-05-09T15:29:52;16.00;99.90
11615;DHT22;5863;52.832;4.758;2023-05-09T15:32:19;16.00;99.90
11615;DHT22;5863;52.832;4.758;2023-05-09T15:34:46;16.00;99.90
11615;DHT22;5863;52.832;4.758;2023-05-09T15:37:13;15.90;99.90
11615;DHT22;5863;52.832;4.758;2023-05-09T15:39:40;15.90;99.90
11615;DHT22;5863;52.832;4.758;2023-05-09T15:42:09;15.80;99.90
11615;DHT22;5863;52.832;4.758;2023-05-09T15:44:36;15.80;99.90
11615;DHT22;5863;52.832;4.758;2023-05-09T15:47:03;15.80;99.90
11615;DHT22;5863;52.832;4.758;2023-05-09T15:49:30;15.80;99.90
11615;DHT22;5863;52.832;4.758;2023-05-09T15:51:57;15.80;99.90